x

Freeport, Tx - 60 Nm South Of Freeport, Tx (42019) Wave Buoy

7:50pm - Thu 31st Jul 2014 All times are CDT. -5 hours from GMT.

  • Sig Wave height 2.0ft
  • Swell Direction
  • Peak Period 5s
  • Average Period 4s
  • Wind
    11mph, 13mph gusts
  • Sea Temp 85°f
  • Air Temp 84°f
  • Sea Pressure 1014mb
  • Freeport, Tx - 60 Nm South Of Freeport, Tx
  • Freeport, Tx - 60 Nm South Of Freeport, Tx

More Historic Weather Station data

Upgrade to MSW Pro to gain access to the past 30 days of data for over 8000 Wavebouys and Weather Stations around the globe.

Join Pro

Comparision Forecast

View Surf forecast
   
Thu 07/31 7:50pm 2ft 5s 4s 11 13 mph 1014mb 85f 84f
6:50pm 2.5ft 5s 4s 9 11 mph 1014.3mb 85f 85f
5:50pm 2.5ft 5s 4s 9 11 mph 1014.6mb 85f 85f
4:50pm 2.5ft 5s 4s 9
mph
1014.7mb 85f 85f
3:50pm 2.5ft 5s 4s 9 11 mph 1014.7mb 85f 85f
2:50pm 2.5ft 5s 4s 7 9 mph 1015.4mb 85f 85f
1:50pm 2.5ft 5s 4s 4 7 mph 1016mb 85f 85f
12:50pm 2.5ft 6s 4s 7 9 mph 1016.2mb 84f 84f
11:50am 2.5ft 5s 4s 7 9 mph 1016.2mb 84f 84f
10:50am 2.5ft 5s 4s 9 11 mph 1015.7mb 83f 84f
9:50am 2.5ft 5s 4s 11
mph
1015.3mb 84f 84f
8:50am 2.5ft 4s 4s 11 13 mph 1015.4mb 84f 84f
7:50am  -   -   -  13 16 mph 1014.6mb 84f 84f
6:50am 2.5ft 5s 4s 16 18 mph 1014.4mb 84f 83f
5:50am 2.5ft 5s 4s 16 18 mph 1014.5mb 84f 83f
4:50am 2.5ft 4s 4s 16 18 mph 1014.5mb 84f 83f
3:50am 2.5ft 4s 4s 16 20 mph 1014.5mb 84f 84f
2:50am 2ft 4s 3s 16 18 mph 1014.9mb 84f 83f
1:50am 2.5ft 4s 3s 16 18 mph 1015.2mb 84f 83f
12:50am 2ft 3s 3s 16 18 mph 1015.6mb 84f 84f
Wed 07/30 11:50pm 1.6ft 3s 3s 16 20 mph 1015.6mb 84f 84f
10:50pm 1.3ft 4s 3s 13 16 mph 1015.5mb 84f 84f
9:50pm 1.3ft 4s 3s 13 16 mph 1015.3mb 85f 84f
8:50pm 1.3ft 4s 4s 11 13 mph 1015.1mb 85f 84f
7:50pm 1.3ft 4s 4s 9
mph
1015mb 85f 84f
6:50pm 1.3ft 4s 4s 7 9 mph 1015.1mb 86f 85f
5:50pm 1.3ft 4s 4s 4 7 mph 1015.3mb 86f 85f
4:50pm 1.3ft 4s 4s 4 7 mph 1015.5mb 88f 85f
3:50pm 1.3ft 4s 4s 2 4 mph 1016mb 88f 85f
2:50pm 1.3ft 4s 4s  -  2 mph 1016.6mb 87f 85f
1:50pm 1.3ft 4s 4s 2
mph
1017.2mb 87f 84f
12:50pm 1.3ft 4s 4s 4
mph
1017.6mb 85f 84f
11:50am 1.3ft 4s 4s 4 7 mph 1018mb 84f 83f
10:50am 1.3ft 5s 4s 7
mph
1018.1mb 84f 83f
9:50am 1.3ft 5s 4s 7 9 mph 1017.8mb 83f 83f
8:50am 1ft 5s 4s 9
mph
1017.9mb 84f 83f
7:50am 1ft 5s 4s 7 9 mph 1017.7mb 84f 83f
6:50am 1ft 5s 4s 7 9 mph 1017.5mb 84f 83f
5:50am 1ft 6s 4s 7
mph
1017.2mb 84f 83f
4:50am 1ft 5s 4s 7
mph
1017.3mb 84f 83f
3:50am 1ft 5s 4s 7
mph
1017.3mb 84f 83f
2:50am 1ft 5s 4s 7 9 mph 1017.1mb 84f 83f
1:50am 1ft 5s 4s 7 9 mph 1017.4mb 84f 83f
12:50am 1ft 5s 4s 7 9 mph 1017.7mb 84f 84f
Tue 07/29 11:50pm 1ft 5s 4s 7
mph
1017.5mb 84f 84f
10:50pm 1.3ft 5s 4s 4 7 mph 1017.3mb 84f 83f
9:50pm 1.3ft 5s 4s 4 7 mph 1017.1mb 85f 83f
8:50pm 1.3ft 5s 4s 7 9 mph 1016.6mb 86f 83f
7:50pm 1.3ft 5s 4s 2 4 mph 1017.1mb 87f 84f
6:50pm 1.3ft 5s 4s 2
mph
1017.3mb 88f 85f
5:50pm 1.3ft 4s 4s  -  2 mph 1017.5mb 88f 85f
4:50pm 1.3ft 5s 4s 2 4 mph 1018mb 88f 84f
3:50pm 1.3ft 5s 4s 2
mph
1018.2mb 87f 84f
2:50pm 1.3ft 5s 4s 4 7 mph 1018.3mb 87f 83f
1:50pm 1.6ft 6s 4s 4 7 mph 1018.9mb 86f 83f
12:50pm 1.6ft 5s 4s 4
mph
1019.5mb 86f 83f
11:50am 1.6ft 5s 4s 2 4 mph 1019.8mb 85f 83f
10:50am 1.6ft 6s 4s 4
mph
1020.1mb 84f 83f
9:50am 1.6ft 6s 4s 4 7 mph 1019.5mb 83f 83f
8:50am 2ft 5s 4s 7
mph
1019.2mb 83f 83f
7:50am 2ft 5s 4s 9
mph
1018.9mb 83f 83f
6:50am 1.6ft 5s 4s 9 11 mph 1018.5mb 83f 83f
5:50am 2ft 6s 4s 11 13 mph 1017.8mb 84f 83f
4:50am 2ft 6s 4s 13 16 mph 1017.2mb 84f 83f
3:50am 1.6ft 5s 4s 13 18 mph 1017mb 84f 83f
2:50am 2ft 6s 4s 13 16 mph 1017mb 84f 83f
1:50am 1.6ft 5s 4s 11 13 mph 1017.4mb 84f 83f
12:50am 1.6ft 5s 4s 11 13 mph 1017.8mb 84f 83f
Mon 07/28 11:50pm 2ft 6s 4s 11 13 mph 1018mb 84f 84f
10:50pm 1.6ft 5s 4s 9 11 mph 1018.5mb 84f 84f
9:50pm 2ft 6s 5s 9 11 mph 1018.8mb 85f 84f
8:50pm 2ft 5s 5s 7 9 mph 1018.7mb 85f 84f
7:50pm 2ft 5s 4s 7 9 mph 1017.9mb 85f 84f
6:50pm 2ft 6s 5s 7 9 mph 1017.7mb 86f 84f
5:50pm 2ft 5s 5s 4 7 mph 1018.1mb 86f 84f
4:50pm 2.5ft 5s 4s 2
mph
1018.8mb 86f 84f
3:50pm 2.5ft 5s 5s 4 7 mph 1019.1mb 85f 84f
2:50pm 2.5ft 5s 4s 4 7 mph 1019.4mb 85f 84f
1:50pm 2.5ft 6s 4s 7
mph
1020.1mb 85f 84f
12:50pm 2.5ft 5s 4s 7 9 mph 1020.5mb 85f 84f
11:50am 2.5ft 5s 4s 4 7 mph 1020.6mb 84f 84f
10:50am 2.5ft 6s 4s 4
mph
1020.7mb 84f 84f
9:50am 2.5ft 5s 4s 7 9 mph 1020.3mb 83f 84f
8:50am 2.5ft 5s 4s 9 11 mph 1019.7mb 83f 84f
7:50am 2.5ft 6s 4s 11 13 mph 1019.1mb 83f 83f
6:50am 2.5ft 6s 4s 11
mph
1019mb 83f 83f
5:50am 2.5ft 5s 4s 11 13 mph 1018.4mb 83f 83f
4:50am 2.5ft 6s 4s 11 13 mph 1018.2mb 83f 83f
3:50am 2.5ft 6s 4s 11 13 mph 1017.9mb 83f 83f
2:50am 2.5ft 6s 4s 11 13 mph 1017.9mb 83f 83f